Terminal Aerodrome Forecast
Issued by NWS Albany, NY

Home | Current Version | Previous Version | Text Only | Print | Product List | Glossary On
Versions: 1 2 3 4 5 6 7 8 9 10 11 12 13 14 15 16 17 18 19 20 21 22
000
FTUS41 KALY 010500
TAFGFL
TAF
KGFL 010525Z 0106/0206 00000KT P6SM SCT035 OVC070
     FM010800 VRB03KT P6SM OVC035
     FM011500 05006KT P6SM SCT035 BKN200
     FM020400 03004KT P6SM BKN070 OVC150=

USA.gov is the U.S. government's official web portal to all federal, state and local government web resources and services.